Cobalt, Connecticut
Current Conditions -  °F | °C
As of 3:35 AM on Sunday 21 Dec 2014 (Local Time) from KSNC Reporting Station
Overcast Overcast  
Wind Chill: -3°   Ceiling: 800
Heat Index:   Visibility: 10mi
Dew Point: -1°   Wind: 6mph
Humidity: 93%   Direction: 350°N
Pressure: 30.25"   Gusts: NA
Location:  41.56°N, 72.56°W
Report Text: KSNC 210835Z AUTO 35005KT 10SM OVC008 00/M01 A3025 RMK AO2
Loading
Personal Weather Stations






























Interactive Weather Map New forecast layout! Learn more

10-Day Weather Forecast

Advertisements
Track Severe Weather on mobile